Time;durP1;ratioP1;P1;durP2;ratioP2;P2;SDS_P1;SDS_P2;PMS_P1;PMS_P2;Temp;Humidity;BMP_temperature;BMP_pressure;BME280_temperature;BME280_humidity;BME280_pressure;Samples;Min_cycle;Max_cycle;Signal;HPM_P1;HPM_P2
2021/05/04 00:05:34;;;;;;;10;6.8;;;;;;;3.89;96.36133;98775.78;;;;
2021/05/04 00:15:32;;;;;;;9.8;6.3;;;;;;;3.77;96.28027;98775.2;;;;
2021/05/04 00:25:30;;;;;;;11.7;6.6;;;;;;;3.55;96.74902;98761.2;;;;
2021/05/04 00:35:28;;;;;;;9.6;6.8;;;;;;;3.2;100;98758.3;;;;
2021/05/04 00:45:26;;;;;;;9.4;6.5;;;;;;;3.32;99.68652;98759.73;;;;
2021/05/04 00:55:24;;;;;;;11.1;6.2;;;;;;;3.21;100;98752.72;;;;
2021/05/04 01:05:22;;;;;;;9.8;5.9;;;;;;;3.07;99.39551;98737.43;;;;
2021/05/04 01:15:20;;;;;;;9;6;;;;;;;2.81;100;98739.11;;;;
2021/05/04 01:25:19;;;;;;;8.9;7.1;;;;;;;2.48;100;98729.48;;;;
2021/05/04 01:35:16;;;;;;;12.6;8.8;;;;;;;2.28;100;98722.11;;;;
2021/05/04 01:45:14;;;;;;;9.7;4.8;;;;;;;2.15;100;98711.07;;;;
2021/05/04 01:55:12;;;;;;;7.9;5.3;;;;;;;2.02;100;98697.09;;;;
2021/05/04 02:05:10;;;;;;;6;3.7;;;;;;;2.18;100;98694.61;;;;
2021/05/04 02:15:08;;;;;;;7.5;5.5;;;;;;;2.01;100;98686.73;;;;
2021/05/04 02:25:06;;;;;;;12.4;9.4;;;;;;;1.8;100;98684.89;;;;
2021/05/04 02:35:03;;;;;;;15.7;10.4;;;;;;;1.51;100;98686.92;;;;
2021/05/04 02:45:01;;;;;;;11;8.5;;;;;;;1.31;100;98684.01;;;;
2021/05/04 02:55:01;;;;;;;13.3;8.3;;;;;;;1.09;100;98678.66;;;;
2021/05/04 03:04:57;;;;;;;11.8;7.7;;;;;;;0.88;100;98680.21;;;;
2021/05/04 03:14:55;;;;;;;6.9;4.4;;;;;;;0.76;100;98673.39;;;;
2021/05/04 03:24:52;;;;;;;10;3.2;;;;;;;1.21;100;98642.21;;;;
2021/05/04 03:34:50;;;;;;;5.6;3.6;;;;;;;1.93;100;98634.02;;;;
2021/05/04 03:44:48;;;;;;;5.9;2.8;;;;;;;2.43;98.72363;98626.49;;;;
2021/05/04 03:54:46;;;;;;;14.2;8.5;;;;;;;2.46;100;98619.89;;;;
2021/05/04 04:04:44;;;;;;;12;8.1;;;;;;;2.41;100;98627.81;;;;
2021/05/04 04:14:41;;;;;;;10.5;6.9;;;;;;;2.51;100;98617.25;;;;
2021/05/04 04:24:39;;;;;;;9.4;7.2;;;;;;;2.72;100;98613.69;;;;
2021/05/04 04:34:37;;;;;;;13.3;9.5;;;;;;;3.01;100;98619.47;;;;
2021/05/04 04:44:35;;;;;;;11.8;7.2;;;;;;;3.31;100;98619.62;;;;
2021/05/04 04:54:33;;;;;;;11.6;7.7;;;;;;;3.51;100;98626.89;;;;
2021/05/04 05:04:31;;;;;;;17.7;11.6;;;;;;;3.97;100;98604.64;;;;
2021/05/04 05:14:29;;;;;;;8.6;6;;;;;;;4.49;97.79102;98609.75;;;;
2021/05/04 05:24:28;;;;;;;13.1;6.4;;;;;;;5.08;97.52344;98609.14;;;;
2021/05/04 05:34:26;;;;;;;8.3;5.3;;;;;;;5.77;94.83887;98594.97;;;;
2021/05/04 05:44:24;;;;;;;9.4;4.6;;;;;;;6.54;94.21777;98578.14;;;;
2021/05/04 05:54:22;;;;;;;5.4;3.5;;;;;;;7.44;83.83398;98570.22;;;;
2021/05/04 06:04:21;;;;;;;4.7;2.2;;;;;;;8.31;79.17188;98547.27;;;;
2021/05/04 06:14:19;;;;;;;3.7;1.8;;;;;;;9.02;75.09766;98533.36;;;;
2021/05/04 06:24:18;;;;;;;3.3;2;;;;;;;9.69;76.84473;98522.83;;;;
2021/05/04 06:34:17;;;;;;;4.2;2.1;;;;;;;10.01;76.08984;98494.92;;;;
2021/05/04 06:44:16;;;;;;;4.2;1.6;;;;;;;10.27;71.54199;98479.78;;;;
2021/05/04 06:54:15;;;;;;;5.4;2;;;;;;;10.33;70.52441;98461.58;;;;
2021/05/04 07:04:13;;;;;;;4.3;1.8;;;;;;;10.78;70.95801;98448.79;;;;
2021/05/04 07:14:12;;;;;;;7.2;2.6;;;;;;;10.97;69.65527;98435.83;;;;
2021/05/04 07:24:11;;;;;;;4.5;2.4;;;;;;;11.89;66.5;98411.18;;;;
2021/05/04 07:34:10;;;;;;;7.4;2.8;;;;;;;11.77;67.05859;98391.32;;;;
2021/05/04 07:44:09;;;;;;;4.4;2.5;;;;;;;12.37;64.29785;98378.47;;;;
2021/05/04 07:54:09;;;;;;;12.8;2.6;;;;;;;12.68;66.2666;98350.34;;;;
2021/05/04 08:04:08;;;;;;;4.3;2.3;;;;;;;13.48;64.2207;98346.45;;;;
2021/05/04 08:14:08;;;;;;;3.3;2.3;;;;;;;13.38;63.10254;98326.01;;;;
2021/05/04 08:24:06;;;;;;;3.3;1.5;;;;;;;13.47;63.10254;98306.97;;;;
2021/05/04 08:34:05;;;;;;;4.3;2;;;;;;;14.23;59.19922;98312.67;;;;
2021/05/04 08:44:04;;;;;;;4.4;2.2;;;;;;;14.07;59.06445;98301.72;;;;
2021/05/04 08:54:04;;;;;;;3.5;1.8;;;;;;;14.41;57.09473;98286.96;;;;
2021/05/04 09:04:07;;;;;;;4.7;2.2;;;;;;;14.66;57.56152;98257.11;;;;
2021/05/04 09:14:08;;;;;;;3.4;1.9;;;;;;;14.38;57.82324;98248.89;;;;
2021/05/04 09:24:21;;;;;;;3.3;2;;;;;;;14.53;58.35938;98224.59;;;;
2021/05/04 09:34:10;;;;;;;2.3;1.2;;;;;;;14.9;60.13672;98216.35;;;;
2021/05/04 09:44:02;;;;;;;3.8;2;;;;;;;14.91;56.56348;98199.73;;;;
2021/05/04 09:54:10;;;;;;;4.4;1.9;;;;;;;15.19;60.53223;98159.02;;;;
2021/05/04 10:04:04;;;;;;;2.8;1.5;;;;;;;15.55;60.82227;98133.56;;;;
2021/05/04 10:14:02;;;;;;;3.5;1.7;;;;;;;16.38;57.4541;98116.08;;;;
2021/05/04 10:23:59;;;;;;;3.9;1.7;;;;;;;16.34;53.85938;98091.53;;;;
2021/05/04 10:33:58;;;;;;;3.5;1.7;;;;;;;16.66;54.25488;98080.53;;;;
2021/05/04 10:43:58;;;;;;;2.5;1.4;;;;;;;17.27;37.98047;98064.92;;;;
2021/05/04 10:54:01;;;;;;;3.9;1.5;;;;;;;17.29;36.76465;98050.92;;;;
2021/05/04 11:03:57;;;;;;;6.5;2.1;;;;;;;17.68;40.68262;98040.67;;;;
2021/05/04 11:13:57;;;;;;;3.4;1.7;;;;;;;17.76;39.87891;98018.62;;;;
2021/05/04 11:23:57;;;;;;;3.8;1.6;;;;;;;17.82;40.21973;97991.81;;;;
2021/05/04 11:33:57;;;;;;;3.5;1.5;;;;;;;17.69;39.70996;97958.56;;;;
2021/05/04 11:43:57;;;;;;;4.3;1.7;;;;;;;17.9;38.94043;97961.56;;;;
2021/05/04 11:53:56;;;;;;;2.7;1.3;;;;;;;18.3;35.4082;97949.94;;;;
2021/05/04 12:03:56;;;;;;;4;2;;;;;;;18.59;35.75684;97953.78;;;;
2021/05/04 12:13:56;;;;;;;5.4;1.8;;;;;;;18.49;32.15332;97930.66;;;;
2021/05/04 12:23:56;;;;;;;4.4;1.6;;;;;;;18.6;30.74023;97903.5;;;;
2021/05/04 12:33:56;;;;;;;3.6;1.5;;;;;;;18.79;35.87793;97891.55;;;;
2021/05/04 12:43:56;;;;;;;16.6;2.6;;;;;;;19.03;35.24512;97875.36;;;;
2021/05/04 12:53:56;;;;;;;3.3;1.4;;;;;;;19.13;32.51367;97873.06;;;;
2021/05/04 13:03:56;;;;;;;3;1.9;;;;;;;19.01;30.95508;97872.23;;;;
2021/05/04 13:14:04;;;;;;;4.7;2.2;;;;;;;18.97;30.11328;97868.69;;;;
2021/05/04 13:33:55;;;;;;;6.4;1.8;;;;;;;19.44;31.55664;97856.1;;;;
2021/05/04 13:53:55;;;;;;;4;2.7;;;;;;;19.13;31.95508;97832.88;;;;
2021/05/04 14:04:07;;;;;;;4.4;2.4;;;;;;;19.29;33.17969;97833.38;;;;
2021/05/04 14:33:55;;;;;;;7;2.7;;;;;;;18.51;35.55273;97781;;;;
2021/05/04 14:44:20;;;;;;;3.4;1.7;;;;;;;18.48;36.74805;97768.09;;;;
2021/05/04 15:03:54;;;;;;;5;2.6;;;;;;;18.74;37.44434;97753.48;;;;
2021/05/04 15:13:55;;;;;;;4.6;2.5;;;;;;;18.46;37.22168;97728.7;;;;
2021/05/04 15:23:53;;;;;;;3.7;2.1;;;;;;;18.59;37.9541;97721.8;;;;
2021/05/04 15:33:53;;;;;;;2.9;1.6;;;;;;;18.25;38.13379;97701.28;;;;
2021/05/04 15:43:54;;;;;;;5.4;1.9;;;;;;;17.91;39.66016;97687;;;;
2021/05/04 15:54:07;;;;;;;11;2.9;;;;;;;17.8;39.56934;97672.49;;;;
2021/05/04 16:13:54;;;;;;;3.5;1.8;;;;;;;16.99;40.15723;97635.09;;;;
2021/05/04 16:23:57;;;;;;;5;2.6;;;;;;;16.79;39.94141;97632.91;;;;
2021/05/04 16:33:51;;;;;;;4.8;2.2;;;;;;;16.63;39.60352;97608.61;;;;
2021/05/04 16:43:51;;;;;;;4;2.2;;;;;;;16.53;39.55957;97611.95;;;;
2021/05/04 16:53:50;;;;;;;3.9;1.6;;;;;;;16.51;39.87012;97606.12;;;;
2021/05/04 17:03:50;;;;;;;7.1;2.5;;;;;;;16.27;39.8252;97593.77;;;;
2021/05/04 17:13:49;;;;;;;3.9;2.3;;;;;;;16.04;41.65234;97580.25;;;;
2021/05/04 17:23:49;;;;;;;6.5;3.6;;;;;;;15.74;41.98145;97570.48;;;;
2021/05/04 17:33:50;;;;;;;4.4;2.2;;;;;;;15.48;41.1377;97563.09;;;;
2021/05/04 17:43:51;;;;;;;4.3;2.3;;;;;;;15.29;40.15039;97565.86;;;;
2021/05/04 17:53:47;;;;;;;7.4;4.2;;;;;;;14.98;42.78418;97559.53;;;;
2021/05/04 18:03:46;;;;;;;8.1;3.8;;;;;;;14.44;43.52539;97558.88;;;;
2021/05/04 18:23:45;;;;;;;8.2;5.2;;;;;;;13.44;47.24316;97560.53;;;;
2021/05/04 18:33:44;;;;;;;18.9;11.3;;;;;;;13.19;49.59766;97559.92;;;;
2021/05/04 20:13:34;;;;;;;5.5;4.1;;;;;;;12.91;49.68066;97524.05;;;;
2021/05/04 20:23:33;;;;;;;4.9;3.3;;;;;;;12.8;50.95996;97512.96;;;;
2021/05/04 20:33:33;;;;;;;6.7;3.2;;;;;;;13.05;49.57031;97510.88;;;;
2021/05/04 20:43:33;;;;;;;6.3;3.9;;;;;;;13.25;49.77637;97493.61;;;;
2021/05/04 20:53:30;;;;;;;5.7;3.3;;;;;;;13.38;48.54199;97513.23;;;;
2021/05/04 21:03:29;;;;;;;7.1;2.8;;;;;;;13.45;48.30957;97513.39;;;;
2021/05/04 21:13:29;;;;;;;5.9;3.2;;;;;;;13.47;48.41504;97505.69;;;;
2021/05/04 21:23:46;;;;;;;6.2;2.5;;;;;;;13.63;47.85938;97520;;;;
2021/05/04 21:33:27;;;;;;;5.4;2.5;;;;;;;13.54;48.92773;97522.88;;;;
2021/05/04 21:43:27;;;;;;;4.3;2.4;;;;;;;13.57;48.12891;97516.77;;;;
2021/05/04 21:53:25;;;;;;;4.5;2.6;;;;;;;13.52;47.49316;97514.34;;;;
2021/05/04 22:03:24;;;;;;;5.6;2.6;;;;;;;13.53;48.25;97512.42;;;;
2021/05/04 22:13:27;;;;;;;6;2.2;;;;;;;13.55;47.37012;97510.93;;;;
2021/05/04 22:43:26;;;;;;;3.5;2.1;;;;;;;13.84;46.92969;97495.31;;;;
2021/05/04 23:23:17;;;;;;;3.7;2;;;;;;;13.87;46.94531;97467.51;;;;
2021/05/04 23:33:16;;;;;;;4.6;1.9;;;;;;;13.87;47.41602;97465.59;;;;
2021/05/04 23:43:16;;;;;;;3.7;2;;;;;;;13.81;48.04004;97458.11;;;;
2021/05/04 23:53:15;;;;;;;2.7;1.7;;;;;;;13.67;48.55176;97450.47;;;;
